createdAt,value
2023-01-11T00:03:48.451Z,3.07
2023-01-11T00:08:55.800Z,3.00
2023-01-11T00:14:01.411Z,3.10
2023-01-11T00:19:07.014Z,3.00
2023-01-11T00:24:12.417Z,3.13
2023-01-11T00:29:18.086Z,2.90
2023-01-11T00:34:23.619Z,3.00
2023-01-11T00:39:29.343Z,2.90
2023-01-11T00:44:52.666Z,2.80
2023-01-11T00:49:58.159Z,2.80
2023-01-11T00:55:03.785Z,3.30
2023-01-11T01:00:10.561Z,2.80
2023-01-11T01:05:16.731Z,2.17
2023-01-11T01:10:22.402Z,2.60
2023-01-11T01:15:27.896Z,3.03
2023-01-11T01:20:33.431Z,2.50
2023-01-11T01:25:39.256Z,2.77
2023-01-11T01:30:44.717Z,2.07
2023-01-11T01:35:50.331Z,2.87
2023-01-11T01:40:57.088Z,2.93
2023-01-11T01:46:02.541Z,2.70
2023-01-11T01:51:10.422Z,2.40
2023-01-11T01:56:18.934Z,2.73
2023-01-11T02:01:42.533Z,2.60
2023-01-11T02:06:48.846Z,2.57
2023-01-11T02:11:57.182Z,3.43
2023-01-11T02:17:02.696Z,2.57
2023-01-11T02:22:38.414Z,2.23
2023-01-11T02:28:07.834Z,2.57
2023-01-11T02:33:43.558Z,2.03
2023-01-11T02:38:58.142Z,2.07
2023-01-11T02:44:24.042Z,2.00
2023-01-11T02:49:38.632Z,1.97
2023-01-11T02:54:46.593Z,1.70
2023-01-11T02:59:55.077Z,2.20
2023-01-11T03:05:00.473Z,2.17
2023-01-11T03:10:28.727Z,2.20
2023-01-11T03:15:53.909Z,2.13
2023-01-11T03:21:28.425Z,2.03
2023-01-11T03:26:45.899Z,2.03
2023-01-11T03:32:12.752Z,2.50
2023-01-11T03:37:23.887Z,1.73
2023-01-11T03:42:31.715Z,1.70
2023-01-11T03:47:38.016Z,1.90
2023-01-11T03:52:45.864Z,1.50
2023-01-11T03:57:52.704Z,2.00
2023-01-11T04:02:58.218Z,1.90
2023-01-11T04:08:03.536Z,2.03
2023-01-11T04:13:09.192Z,1.60
2023-01-11T04:18:14.698Z,1.27
2023-01-11T04:23:20.237Z,2.07
2023-01-11T04:28:25.648Z,1.70
2023-01-11T04:33:31.456Z,1.90
2023-01-11T04:38:37.328Z,1.70
2023-01-11T04:43:42.845Z,1.23
2023-01-11T04:48:48.399Z,1.40
2023-01-11T04:53:54.032Z,1.77
2023-01-11T04:58:59.573Z,1.70
2023-01-11T05:04:05.144Z,1.70
2023-01-11T05:09:16.346Z,1.50
2023-01-11T05:14:22.054Z,1.60
2023-01-11T05:19:27.764Z,1.57
2023-01-11T05:24:33.233Z,1.50
2023-01-11T05:29:38.686Z,1.40
2023-01-11T05:34:44.137Z,1.70
2023-01-11T05:39:50.033Z,1.30
2023-01-11T05:45:13.419Z,1.60
2023-01-11T05:50:19.008Z,1.70
2023-01-11T05:55:24.441Z,1.63
2023-01-11T06:00:30.674Z,1.70
2023-01-11T06:05:38.265Z,1.87
2023-01-11T06:10:44.051Z,1.50
2023-01-11T06:15:49.499Z,2.10
2023-01-11T06:20:56.213Z,1.27
2023-01-11T06:26:06.702Z,1.77
2023-01-11T06:31:12.451Z,2.33
2023-01-11T06:36:18.147Z,2.10
2023-01-11T06:41:23.605Z,1.87
2023-01-11T06:46:29.373Z,2.43
2023-01-11T06:51:35.085Z,1.90
2023-01-11T06:56:40.468Z,1.80
2023-01-11T07:01:47.609Z,2.10
2023-01-11T07:06:54.637Z,2.00
2023-01-11T07:12:00.018Z,2.73
2023-01-11T07:17:05.668Z,2.10
2023-01-11T07:22:11.111Z,2.53
2023-01-11T07:27:16.627Z,2.13
2023-01-11T07:32:22.095Z,2.50
2023-01-11T07:37:29.578Z,2.07
2023-01-11T07:42:52.801Z,1.93
2023-01-11T07:47:58.357Z,1.77
2023-01-11T07:53:03.817Z,2.60
2023-01-11T07:58:11.987Z,3.17
2023-01-11T08:03:17.644Z,2.67
2023-01-11T08:08:23.424Z,2.00
2023-01-11T08:13:47.008Z,2.30
2023-01-11T08:18:53.441Z,2.30
2023-01-11T08:24:00.372Z,3.07
2023-01-11T08:29:05.917Z,2.90
2023-01-11T08:34:11.511Z,2.40
2023-01-11T08:39:16.901Z,2.07
2023-01-11T08:44:33.715Z,2.33
2023-01-11T08:49:30.770Z,2.27
2023-01-11T08:54:36.401Z,2.70
2023-01-11T08:59:42.184Z,2.60
2023-01-11T09:04:48.017Z,1.53
2023-01-11T09:09:53.590Z,2.40
2023-01-11T09:14:59.667Z,2.37
2023-01-11T09:20:05.802Z,2.30
2023-01-11T09:25:11.747Z,2.53
2023-01-11T09:30:20.440Z,2.57
2023-01-11T09:35:27.280Z,2.20
2023-01-11T09:40:48.037Z,2.97
2023-01-11T09:45:55.796Z,2.87
2023-01-11T09:51:02.343Z,2.47
2023-01-11T09:56:11.965Z,2.33
2023-01-11T10:01:31.875Z,2.30
2023-01-11T10:06:43.143Z,2.57
2023-01-11T10:18:31.571Z,2.50
2023-01-11T10:22:23.987Z,2.57
2023-01-11T10:27:32.548Z,1.90
2023-01-11T10:33:00.399Z,2.40
2023-01-11T10:38:19.796Z,2.43
2023-01-11T10:43:27.089Z,2.50
2023-01-11T10:48:41.345Z,2.20
2023-01-11T10:54:00.100Z,2.53
2023-01-11T10:59:25.481Z,2.27
2023-01-11T11:04:56.908Z,2.20
2023-01-11T11:10:08.361Z,2.20
2023-01-11T11:15:28.727Z,2.13
2023-01-11T11:20:35.885Z,2.23
2023-01-11T11:25:44.328Z,2.53
2023-01-11T11:30:52.767Z,3.03
2023-01-11T11:36:02.323Z,2.00
2023-01-11T11:41:13.997Z,2.40
2023-01-11T11:46:25.180Z,1.73
2023-01-11T11:51:30.906Z,1.93
2023-01-11T11:56:41.995Z,2.23
2023-01-11T12:01:50.893Z,2.07
2023-01-11T12:07:11.625Z,2.40
2023-01-11T12:12:24.390Z,2.23
2023-01-11T12:17:29.387Z,2.20
2023-01-11T12:22:34.915Z,1.97
2023-01-11T12:27:46.064Z,2.47
2023-01-11T12:33:09.732Z,2.47
2023-01-11T12:38:37.913Z,2.93
2023-01-11T12:43:49.156Z,2.37
2023-01-11T12:49:20.508Z,2.47
2023-01-11T12:54:51.782Z,2.80
2023-01-11T13:00:09.016Z,2.53
2023-01-11T13:05:45.304Z,2.20
2023-01-11T13:11:08.695Z,2.23
2023-01-11T13:16:17.932Z,2.33
2023-01-11T13:21:40.120Z,2.27
2023-01-11T13:26:50.664Z,2.13
2023-01-11T13:31:59.030Z,1.63
2023-01-11T13:37:10.638Z,1.77
2023-01-11T13:42:27.741Z,2.63
2023-01-11T13:47:45.570Z,2.10
2023-01-11T13:53:03.371Z,1.50
2023-01-11T13:58:16.763Z,2.07
2023-01-11T14:03:25.289Z,1.60
2023-01-11T14:08:59.945Z,1.60
2023-01-11T14:14:19.055Z,1.27
2023-01-11T14:19:30.365Z,1.37
2023-01-11T14:24:39.193Z,1.10
2023-01-11T14:30:19.499Z,1.47
2023-01-11T14:35:40.170Z,1.40
2023-01-11T14:40:51.275Z,1.27
2023-01-11T14:46:20.957Z,1.50
2023-01-11T14:51:33.820Z,1.40
2023-01-11T14:56:48.245Z,1.40
2023-01-11T15:02:08.939Z,1.33
2023-01-11T15:07:36.621Z,1.33
2023-01-11T15:12:42.774Z,1.30
2023-01-11T15:18:15.035Z,1.47
2023-01-11T15:23:21.044Z,1.67
2023-01-11T15:28:37.505Z,1.50
2023-01-11T15:33:48.549Z,1.57
2023-01-11T15:39:02.997Z,1.80
2023-01-11T15:44:26.620Z,1.73
2023-01-11T15:49:50.254Z,1.73
2023-01-11T15:55:16.671Z,1.90
2023-01-11T16:00:25.373Z,1.97
2023-01-11T16:05:36.813Z,2.53
2023-01-11T16:10:54.467Z,2.73
2023-01-11T16:16:06.004Z,2.40
2023-01-11T16:21:23.406Z,2.60
2023-01-11T16:26:29.057Z,2.83
2023-01-11T16:32:02.077Z,2.23
2023-01-11T16:37:35.032Z,2.20
2023-01-11T16:42:59.621Z,2.37
2023-01-11T16:48:08.463Z,2.33
2023-01-11T16:53:16.144Z,2.40
2023-01-11T16:58:36.173Z,2.30
2023-01-11T17:03:50.568Z,1.97
2023-01-11T17:08:59.635Z,2.57
2023-01-11T17:14:16.767Z,2.70
2023-01-11T17:19:28.669Z,2.17
2023-01-11T17:24:39.972Z,3.97
2023-01-11T17:29:57.773Z,2.53
2023-01-11T17:35:06.689Z,3.53
2023-01-11T17:40:34.312Z,3.63
2023-01-11T17:45:40.623Z,3.10
2023-01-11T17:50:53.741Z,3.13
2023-01-11T17:56:01.286Z,3.80
2023-01-11T18:01:15.669Z,3.83
2023-01-11T18:06:41.709Z,3.37
2023-01-11T18:11:49.032Z,3.50
2023-01-11T18:17:03.920Z,4.10
2023-01-11T18:22:32.934Z,3.37
2023-01-11T18:27:38.757Z,4.27
2023-01-11T18:32:44.738Z,5.00
2023-01-11T18:37:50.325Z,5.07
2023-01-11T18:42:56.019Z,5.93
2023-01-11T18:48:01.557Z,5.43
2023-01-11T18:53:06.991Z,5.40
2023-01-11T18:58:12.616Z,4.50
2023-01-11T19:03:18.250Z,4.07
2023-01-11T19:08:23.817Z,4.40
2023-01-11T19:13:29.358Z,3.93
2023-01-11T19:18:35.391Z,4.07
2023-01-11T19:23:42.112Z,3.73
2023-01-11T19:28:47.582Z,2.20
2023-01-11T19:33:53.833Z,3.87
2023-01-11T19:38:59.584Z,3.40
2023-01-11T19:44:05.196Z,3.87
2023-01-11T19:49:10.728Z,3.33
2023-01-11T19:54:17.219Z,3.43
2023-01-11T19:59:24.653Z,3.90
2023-01-11T20:04:30.113Z,3.90
2023-01-11T20:09:40.412Z,3.77
2023-01-11T20:14:46.438Z,3.97
2023-01-11T20:19:53.595Z,4.20
2023-01-11T20:25:00.518Z,4.07
2023-01-11T20:30:08.663Z,3.90
2023-01-11T20:35:14.181Z,4.17
2023-01-11T20:40:19.770Z,4.00
2023-01-11T20:45:27.179Z,3.47
2023-01-11T20:50:32.698Z,3.87
2023-01-11T20:55:38.667Z,4.23
2023-01-11T21:00:44.267Z,4.67
2023-01-11T21:05:50.054Z,4.60
2023-01-11T21:10:55.518Z,5.17
2023-01-11T21:16:11.787Z,4.97
2023-01-11T21:21:19.497Z,6.20
2023-01-11T21:26:26.531Z,5.70
2023-01-11T21:31:34.198Z,5.63
2023-01-11T21:36:40.345Z,7.50
2023-01-11T21:41:55.500Z,6.87
2023-01-11T21:47:07.198Z,6.10
2023-01-11T21:52:12.890Z,6.00
2023-01-11T21:57:18.463Z,5.90
2023-01-11T22:02:24.047Z,5.63
2023-01-11T22:07:31.215Z,6.53
2023-01-11T22:12:37.586Z,5.93
2023-01-11T22:17:43.320Z,5.77
2023-01-11T22:22:48.924Z,6.33
2023-01-11T22:27:54.394Z,6.43
2023-01-11T22:33:01.255Z,6.17
2023-01-11T22:38:06.721Z,6.33
2023-01-11T22:43:12.257Z,6.83
2023-01-11T22:48:17.754Z,7.20
2023-01-11T22:53:23.596Z,7.90
2023-01-11T22:58:29.706Z,6.47
2023-01-11T23:03:35.198Z,6.33
2023-01-11T23:08:42.678Z,7.67
2023-01-11T23:13:55.226Z,7.27
2023-01-11T23:19:01.029Z,7.00
2023-01-11T23:24:07.571Z,7.20
2023-01-11T23:29:13.769Z,7.33
2023-01-11T23:34:19.147Z,5.60
2023-01-11T23:39:24.682Z,5.63
2023-01-11T23:44:30.332Z,6.30
2023-01-11T23:49:36.256Z,6.80
2023-01-11T23:54:41.708Z,6.73
2023-01-11T23:59:47.464Z,6.23
